sensor_id;sensor_type;location;lat;lon;timestamp;temperature;humidity
16674;DHT22;8450;52.654;10.326;2022-10-13T06:21:05;5.90;99.90
16674;DHT22;8450;52.654;10.326;2022-10-13T06:23:30;5.80;99.90
16674;DHT22;8450;52.654;10.326;2022-10-13T06:25:56;5.80;99.90
16674;DHT22;8450;52.654;10.326;2022-10-13T06:28:21;5.90;99.90
16674;DHT22;8450;52.654;10.326;2022-10-13T06:30:48;5.80;99.90
16674;DHT22;8450;52.654;10.326;2022-10-13T06:33:21;5.90;99.90
16674;DHT22;8450;52.654;10.326;2022-10-13T06:35:47;5.90;99.90
16674;DHT22;8450;52.654;10.326;2022-10-13T06:38:13;5.90;99.90
16674;DHT22;8450;52.654;10.326;2022-10-13T06:40:40;5.90;99.90
16674;DHT22;8450;52.654;10.326;2022-10-13T06:43:06;6.00;99.90
16674;DHT22;8450;52.654;10.326;2022-10-13T06:45:39;6.00;99.90
16674;DHT22;8450;52.654;10.326;2022-10-13T06:48:05;6.00;99.90
16674;DHT22;8450;52.654;10.326;2022-10-13T06:50:31;6.00;99.90
16674;DHT22;8450;52.654;10.326;2022-10-13T06:55:38;6.10;99.90
16674;DHT22;8450;52.654;10.326;2022-10-13T06:58:06;6.10;99.90
16674;DHT22;8450;52.654;10.326;2022-10-13T07:00:32;6.10;99.90
16674;DHT22;8450;52.654;10.326;2022-10-13T07:02:57;6.20;99.90
16674;DHT22;8450;52.654;10.326;2022-10-13T07:05:23;6.20;99.90
16674;DHT22;8450;52.654;10.326;2022-10-13T07:07:51;6.20;99.90
16674;DHT22;8450;52.654;10.326;2022-10-13T07:10:18;6.30;99.90
16674;DHT22;8450;52.654;10.326;2022-10-13T07:12:44;6.30;99.90
16674;DHT22;8450;52.654;10.326;2022-10-13T07:15:09;6.30;99.90
16674;DHT22;8450;52.654;10.326;2022-10-13T07:17:35;6.40;99.90
16674;DHT22;8450;52.654;10.326;2022-10-13T07:20:02;6.40;99.90
16674;DHT22;8450;52.654;10.326;2022-10-13T07:22:29;6.50;99.90
16674;DHT22;8450;52.654;10.326;2022-10-13T07:24:55;6.50;99.90
16674;DHT22;8450;52.654;10.326;2022-10-13T07:27:21;6.50;99.90
16674;DHT22;8450;52.654;10.326;2022-10-13T07:29:46;6.60;99.90
16674;DHT22;8450;52.654;10.326;2022-10-13T07:32:12;6.60;99.90
16674;DHT22;8450;52.654;10.326;2022-10-13T07:34:38;6.70;99.90
16674;DHT22;8450;52.654;10.326;2022-10-13T07:37:03;6.70;99.90
16674;DHT22;8450;52.654;10.326;2022-10-13T07:39:30;6.80;99.90
16674;DHT22;8450;52.654;10.326;2022-10-13T07:41:56;6.90;99.90
16674;DHT22;8450;52.654;10.326;2022-10-13T07:44:22;6.90;99.90
16674;DHT22;8450;52.654;10.326;2022-10-13T07:46:47;7.00;99.90
16674;DHT22;8450;52.654;10.326;2022-10-13T07:49:13;7.10;99.90
16674;DHT22;8450;52.654;10.326;2022-10-13T07:51:38;7.20;99.90
16674;DHT22;8450;52.654;10.326;2022-10-13T07:54:04;7.20;99.90
16674;DHT22;8450;52.654;10.326;2022-10-13T07:56:32;7.40;99.90
16674;DHT22;8450;52.654;10.326;2022-10-13T07:58:57;7.50;99.90
16674;DHT22;8450;52.654;10.326;2022-10-13T08:04:04;7.60;99.90
16674;DHT22;8450;52.654;10.326;2022-10-13T08:06:31;7.70;99.90
16674;DHT22;8450;52.654;10.326;2022-10-13T08:08:56;7.80;99.90
16674;DHT22;8450;52.654;10.326;2022-10-13T08:13:57;8.00;99.90
16674;DHT22;8450;52.654;10.326;2022-10-13T08:16:27;8.10;99.90
16674;DHT22;8450;52.654;10.326;2022-10-13T08:18:53;8.30;99.90
16674;DHT22;8450;52.654;10.326;2022-10-13T08:24:22;8.40;99.90
16674;DHT22;8450;52.654;10.326;2022-10-13T08:26:48;8.60;99.90
16674;DHT22;8450;52.654;10.326;2022-10-13T08:29:15;8.70;99.90
16674;DHT22;8450;52.654;10.326;2022-10-13T08:31:41;8.90;99.90
16674;DHT22;8450;52.654;10.326;2022-10-13T08:34:08;9.00;99.90
16674;DHT22;8450;52.654;10.326;2022-10-13T08:36:34;9.10;99.90
16674;DHT22;8450;52.654;10.326;2022-10-13T08:38:59;9.20;99.90
16674;DHT22;8450;52.654;10.326;2022-10-13T08:47:50;9.70;99.90
16674;DHT22;8450;52.654;10.326;2022-10-13T08:50:19;9.90;99.90
16674;DHT22;8450;52.654;10.326;2022-10-13T08:52:58;10.10;99.90
16674;DHT22;8450;52.654;10.326;2022-10-13T08:55:47;10.20;99.90
16674;DHT22;8450;52.654;10.326;2022-10-13T08:58:20;10.40;99.90
16674;DHT22;8450;52.654;10.326;2022-10-13T09:00:46;10.50;99.90
16674;DHT22;8450;52.654;10.326;2022-10-13T09:06:13;10.80;99.90
16674;DHT22;8450;52.654;10.326;2022-10-13T09:09:01;11.00;99.90
16674;DHT22;8450;52.654;10.326;2022-10-13T09:11:33;11.20;99.90
16674;DHT22;8450;52.654;10.326;2022-10-13T09:14:03;11.30;99.90
16674;DHT22;8450;52.654;10.326;2022-10-13T09:16:41;11.40;99.90
16674;DHT22;8450;52.654;10.326;2022-10-13T09:19:31;11.50;99.90
16674;DHT22;8450;52.654;10.326;2022-10-13T09:22:27;11.60;99.90
16674;DHT22;8450;52.654;10.326;2022-10-13T09:25:18;11.70;99.90
16674;DHT22;8450;52.654;10.326;2022-10-13T09:27:53;11.90;99.90
16674;DHT22;8450;52.654;10.326;2022-10-13T09:35:43;12.10;99.90
16674;DHT22;8450;52.654;10.326;2022-10-13T09:38:15;12.20;99.90
16674;DHT22;8450;52.654;10.326;2022-10-13T09:40:42;12.30;99.90
16674;DHT22;8450;52.654;10.326;2022-10-13T09:45:46;12.40;99.90
16674;DHT22;8450;52.654;10.326;2022-10-13T09:48:33;12.40;99.90
16674;DHT22;8450;52.654;10.326;2022-10-13T09:50:59;12.50;99.90
16674;DHT22;8450;52.654;10.326;2022-10-13T09:56:20;12.60;99.90
16674;DHT22;8450;52.654;10.326;2022-10-13T09:58:57;12.80;99.90
16674;DHT22;8450;52.654;10.326;2022-10-13T10:01:31;13.00;99.90
16674;DHT22;8450;52.654;10.326;2022-10-13T10:04:00;13.30;99.90
16674;DHT22;8450;52.654;10.326;2022-10-13T10:06:28;13.50;99.90
16674;DHT22;8450;52.654;10.326;2022-10-13T10:09:04;13.70;99.90
16674;DHT22;8450;52.654;10.326;2022-10-13T10:11:39;14.00;99.90
16674;DHT22;8450;52.654;10.326;2022-10-13T10:29:43;15.70;99.90
16674;DHT22;8450;52.654;10.326;2022-10-13T10:32:14;16.00;99.90
16674;DHT22;8450;52.654;10.326;2022-10-13T10:34:52;16.20;99.90
16674;DHT22;8450;52.654;10.326;2022-10-13T10:37:32;16.30;99.90
16674;DHT22;8450;52.654;10.326;2022-10-13T11:02:09;17.20;99.90
16674;DHT22;8450;52.654;10.326;2022-10-13T11:21:00;17.50;99.90
16674;DHT22;8450;52.654;10.326;2022-10-13T11:24:07;17.50;99.90
16674;DHT22;8450;52.654;10.326;2022-10-13T11:34:35;17.60;99.90
16674;DHT22;8450;52.654;10.326;2022-10-13T11:41:16;17.70;99.90
16674;DHT22;8450;52.654;10.326;2022-10-13T11:58:06;18.20;99.90
16674;DHT22;8450;52.654;10.326;2022-10-13T12:04:19;18.40;99.90
16674;DHT22;8450;52.654;10.326;2022-10-13T12:06:50;18.50;99.90
16674;DHT22;8450;52.654;10.326;2022-10-13T12:09:19;18.60;99.90
16674;DHT22;8450;52.654;10.326;2022-10-13T12:11:46;18.60;99.90
16674;DHT22;8450;52.654;10.326;2022-10-13T12:14:23;18.70;99.90
16674;DHT22;8450;52.654;10.326;2022-10-13T12:16:55;18.70;99.90
16674;DHT22;8450;52.654;10.326;2022-10-13T12:19:24;18.80;99.90
16674;DHT22;8450;52.654;10.326;2022-10-13T12:25:59;18.90;99.90
16674;DHT22;8450;52.654;10.326;2022-10-13T12:28:53;19.00;99.90
16674;DHT22;8450;52.654;10.326;2022-10-13T12:38:05;19.00;99.90
16674;DHT22;8450;52.654;10.326;2022-10-13T12:44:25;19.00;99.90
16674;DHT22;8450;52.654;10.326;2022-10-13T13:08:18;18.90;99.90
16674;DHT22;8450;52.654;10.326;2022-10-13T13:10:56;18.80;99.90
16674;DHT22;8450;52.654;10.326;2022-10-13T13:23:35;18.90;99.90
16674;DHT22;8450;52.654;10.326;2022-10-13T13:26:10;19.00;99.90
16674;DHT22;8450;52.654;10.326;2022-10-13T13:28:49;19.00;99.90
16674;DHT22;8450;52.654;10.326;2022-10-13T13:31:17;19.00;99.90
16674;DHT22;8450;52.654;10.326;2022-10-13T13:33:43;19.00;99.90
16674;DHT22;8450;52.654;10.326;2022-10-13T13:36:20;18.90;99.90
16674;DHT22;8450;52.654;10.326;2022-10-13T13:38:50;18.90;99.90
16674;DHT22;8450;52.654;10.326;2022-10-13T13:41:16;18.90;99.90
16674;DHT22;8450;52.654;10.326;2022-10-13T13:47:50;18.80;99.90
16674;DHT22;8450;52.654;10.326;2022-10-13T13:51:28;18.70;99.90
16674;DHT22;8450;52.654;10.326;2022-10-13T14:16:59;18.20;99.90
16674;DHT22;8450;52.654;10.326;2022-10-13T14:38:23;17.80;99.90
16674;DHT22;8450;52.654;10.326;2022-10-13T14:45:45;17.70;99.90
16674;DHT22;8450;52.654;10.326;2022-10-13T15:14:26;17.30;99.90
16674;DHT22;8450;52.654;10.326;2022-10-13T15:18:05;17.30;99.90
16674;DHT22;8450;52.654;10.326;2022-10-13T15:28:08;17.20;99.90
16674;DHT22;8450;52.654;10.326;2022-10-13T15:35:38;17.20;99.90
16674;DHT22;8450;52.654;10.326;2022-10-13T15:42:51;17.10;99.90
16674;DHT22;8450;52.654;10.326;2022-10-13T15:50:22;17.00;99.90
